Time,TemperatureF,DewpointF,PressureIn,WindDirection,WindDirectionDegrees,WindSpeedMPH,WindSpeedGustMPH,Humidity,HourlyPrecipIn,Conditions,Clouds,dailyrainin,SoftwareType,DateUTC
2013-03-04 00:01:00,47.3,32.4,29.99,ESE,118,2.7,5.8,56,0.00,,,0.00,VWS V14.01,2013-03-04 08:01:00,
2013-03-04 00:06:00,47.3,32.4,29.99,South,177,3.1,5.4,56,0.00,,,0.00,VWS V14.01,2013-03-04 08:06:00,
2013-03-04 00:11:00,47.3,32.4,29.99,SSE,158,5.4,5.4,56,0.00,,,0.00,VWS V14.01,2013-03-04 08:11:00,
2013-03-04 00:16:00,47.3,32.4,29.99,WSW,240,6.3,7.2,56,0.00,,,0.00,VWS V14.01,2013-03-04 08:16:00,
2013-03-04 00:21:00,47.3,32.4,29.99,SW,220,4.0,5.4,56,0.00,,,0.00,VWS V14.01,2013-03-04 08:21:00,
2013-03-04 00:26:00,47.3,32.4,29.99,SW,217,4.9,4.9,56,0.00,,,0.00,VWS V14.01,2013-03-04 08:26:00,
2013-03-04 00:31:00,47.3,32.4,29.99,SSW,213,2.7,3.6,56,0.00,,,0.00,VWS V14.01,2013-03-04 08:31:00,
2013-03-04 00:37:00,47.3,32.4,29.99,SSW,207,2.2,5.8,56,0.00,,,0.00,VWS V14.01,2013-03-04 08:37:00,
2013-03-04 00:42:00,47.3,32.4,29.99,WSW,248,2.7,5.4,56,0.00,,,0.00,VWS V14.01,2013-03-04 08:42:00,
2013-03-04 00:47:00,47.3,32.4,29.99,SSW,209,3.6,8.1,56,0.00,,,0.00,VWS V14.01,2013-03-04 08:47:00,
2013-03-04 00:52:00,47.3,32.4,29.99,South,172,3.1,5.4,56,0.00,,,0.00,VWS V14.01,2013-03-04 08:52:00,
2013-03-04 00:57:00,47.3,32.4,29.99,South,175,2.2,5.4,56,0.00,,,0.00,VWS V14.01,2013-03-04 08:57:00,
2013-03-04 01:02:00,47.3,32.4,29.99,SSW,198,2.2,5.8,56,0.00,,,0.00,VWS V14.01,2013-03-04 09:02:00,
2013-03-04 01:07:00,47.3,32.4,29.99,WSW,238,2.7,3.1,56,0.00,,,0.00,VWS V14.01,2013-03-04 09:07:00,
2013-03-04 01:12:00,47.3,32.8,29.99,SSW,209,3.1,4.9,57,0.00,,,0.00,VWS V14.01,2013-03-04 09:12:00,
2013-03-04 01:17:00,47.3,32.8,29.99,South,189,3.1,3.6,57,0.00,,,0.00,VWS V14.01,2013-03-04 09:17:00,
2013-03-04 01:22:00,47.3,32.4,29.99,South,172,4.0,4.9,56,0.00,,,0.00,VWS V14.01,2013-03-04 09:22:00,
2013-03-04 01:27:00,47.1,32.2,29.99,South,191,3.1,3.1,56,0.00,,,0.00,VWS V14.01,2013-03-04 09:27:00,
2013-03-04 01:32:00,47.1,32.7,29.99,SW,216,4.0,4.0,57,0.00,,,0.00,VWS V14.01,2013-03-04 09:32:00,
2013-03-04 01:37:00,47.3,32.8,29.99,South,170,5.4,5.4,57,0.00,,,0.00,VWS V14.01,2013-03-04 09:37:00,
2013-03-04 01:42:00,47.3,32.8,29.99,SW,227,4.9,5.4,57,0.00,,,0.00,VWS V14.01,2013-03-04 09:42:00,
2013-03-04 01:47:00,47.1,32.7,29.99,SSW,195,3.6,5.4,57,0.00,,,0.00,VWS V14.01,2013-03-04 09:47:00,
2013-03-04 01:52:00,47.1,32.7,29.99,SSE,165,4.9,4.9,57,0.00,,,0.00,VWS V14.01,2013-03-04 09:52:00,
2013-03-04 01:57:00,47.1,32.7,29.99,SSW,208,2.7,5.4,57,0.00,,,0.00,VWS V14.01,2013-03-04 09:57:00,
2013-03-04 02:02:00,47.1,32.7,29.99,SSW,194,3.6,3.6,57,0.00,,,0.00,VWS V14.01,2013-03-04 10:02:00,
2013-03-04 02:07:00,46.9,32.5,29.99,SE,131,2.7,4.9,57,0.00,,,0.00,VWS V14.01,2013-03-04 10:07:00,
2013-03-04 02:12:00,46.9,32.5,29.99,SSE,147,3.1,3.1,57,0.00,,,0.00,VWS V14.01,2013-03-04 10:12:00,
2013-03-04 02:17:00,46.9,32.5,29.99,SSW,210,5.4,5.4,57,0.00,,,0.00,VWS V14.01,2013-03-04 10:17:00,
2013-03-04 02:22:00,46.9,32.5,29.99,SW,231,3.6,3.6,57,0.00,,,0.00,VWS V14.01,2013-03-04 10:22:00,
2013-03-04 02:27:00,46.9,32.5,29.99,SE,146,2.7,2.7,57,0.00,,,0.00,VWS V14.01,2013-03-04 10:27:00,
2013-03-04 02:32:00,46.9,32.5,29.99,SW,228,3.1,3.1,57,0.00,,,0.00,VWS V14.01,2013-03-04 10:32:00,
2013-03-04 02:37:00,46.9,32.5,29.99,SE,131,3.6,4.9,57,0.00,,,0.00,VWS V14.01,2013-03-04 10:37:00,
2013-03-04 02:42:00,46.9,33.0,29.99,SE,145,4.0,4.0,58,0.00,,,0.00,VWS V14.01,2013-03-04 10:42:00,
2013-03-04 02:47:00,46.8,32.8,29.99,SSE,166,2.7,2.7,58,0.00,,,0.00,VWS V14.01,2013-03-04 10:47:00,
2013-03-04 02:52:00,46.8,32.8,29.99,South,189,0.0,2.2,58,0.00,,,0.00,VWS V14.01,2013-03-04 10:52:00,
2013-03-04 02:57:00,46.8,32.8,29.99,SSE,163,2.7,2.7,58,0.00,,,0.00,VWS V14.01,2013-03-04 10:57:00,
2013-03-04 03:02:00,46.8,32.8,29.99,South,170,2.7,2.7,58,0.00,,,0.00,VWS V14.01,2013-03-04 11:02:00,
2013-03-04 03:07:00,46.8,32.8,29.99,SW,214,2.7,2.7,58,0.00,,,0.00,VWS V14.01,2013-03-04 11:07:00,
2013-03-04 03:12:00,46.8,32.8,29.99,SW,217,3.6,3.6,58,0.00,,,0.00,VWS V14.01,2013-03-04 11:12:00,
2013-03-04 03:17:00,46.8,33.2,29.99,West,259,2.7,4.0,59,0.00,,,0.00,VWS V14.01,2013-03-04 11:17:00,
2013-03-04 03:22:00,46.8,33.2,29.99,SE,137,3.6,3.6,59,0.00,,,0.00,VWS V14.01,2013-03-04 11:22:00,
2013-03-04 03:27:00,46.8,33.2,29.99,ESE,110,3.6,3.6,59,0.00,,,0.00,VWS V14.01,2013-03-04 11:27:00,
2013-03-04 03:32:00,46.8,33.2,29.99,SSE,154,3.6,5.4,59,0.00,,,0.00,VWS V14.01,2013-03-04 11:32:00,
2013-03-04 03:37:00,46.8,33.6,29.99,South,172,5.8,5.8,60,0.00,,,0.00,VWS V14.01,2013-03-04 11:37:00,
2013-03-04 03:42:00,46.8,33.6,29.99,SE,146,5.4,5.4,60,0.00,,,0.00,VWS V14.01,2013-03-04 11:42:00,
2013-03-04 03:47:00,46.8,33.6,29.99,South,173,5.4,5.4,60,0.00,,,0.00,VWS V14.01,2013-03-04 11:47:00,
2013-03-04 03:52:00,46.8,33.6,29.99,SSW,200,3.6,3.6,60,0.00,,,0.00,VWS V14.01,2013-03-04 11:52:00,
2013-03-04 03:57:00,46.9,33.8,29.99,SSW,199,3.6,3.6,60,0.00,,,0.00,VWS V14.01,2013-03-04 11:57:00,
2013-03-04 04:02:00,46.9,34.2,29.99,SSW,195,3.6,3.6,61,0.00,,,0.00,VWS V14.01,2013-03-04 12:02:00,
2013-03-04 04:07:00,46.9,34.2,29.99,West,274,3.6,4.0,61,0.00,,,0.00,VWS V14.01,2013-03-04 12:07:00,
2013-03-04 04:12:00,46.9,34.2,29.99,ESE,114,4.5,4.9,61,0.00,,,0.00,VWS V14.01,2013-03-04 12:12:00,
2013-03-04 04:17:00,46.9,34.2,29.99,SSW,200,4.5,4.5,61,0.00,,,0.00,VWS V14.01,2013-03-04 12:17:00,
2013-03-04 04:22:00,46.9,34.2,29.99,SSE,156,0.0,2.2,61,0.00,,,0.00,VWS V14.01,2013-03-04 12:22:00,
2013-03-04 04:27:00,46.9,34.6,29.99,SSE,148,4.0,7.6,62,0.00,,,0.00,VWS V14.01,2013-03-04 12:27:00,
2013-03-04 04:32:00,47.1,34.8,29.99,SW,215,5.8,5.8,62,0.00,,,0.00,VWS V14.01,2013-03-04 12:32:00,
2013-03-04 04:37:00,47.1,34.8,29.99,SSW,196,3.6,5.4,62,0.00,,,0.00,VWS V14.01,2013-03-04 12:37:00,
2013-03-04 04:42:00,47.1,34.8,29.99,SSW,192,2.7,2.7,62,0.00,,,0.00,VWS V14.01,2013-03-04 12:42:00,
2013-03-04 04:47:00,47.1,35.2,29.99,SSW,205,3.1,4.0,63,0.00,,,0.00,VWS V14.01,2013-03-04 12:47:00,
2013-03-04 04:52:00,47.1,35.2,29.99,SSE,160,2.7,4.9,63,0.00,,,0.00,VWS V14.01,2013-03-04 12:52:00,
2013-03-04 04:57:00,47.1,35.2,29.99,SW,220,2.7,3.1,63,0.00,,,0.00,VWS V14.01,2013-03-04 12:57:00,
2013-03-04 05:02:00,47.1,35.2,29.99,SSW,201,2.7,4.0,63,0.00,,,0.00,VWS V14.01,2013-03-04 13:02:00,
2013-03-04 05:07:00,47.1,35.2,29.99,South,190,3.1,3.1,63,0.00,,,0.00,VWS V14.01,2013-03-04 13:07:00,
2013-03-04 05:12:00,47.1,35.2,29.99,SW,236,3.1,3.6,63,0.00,,,0.00,VWS V14.01,2013-03-04 13:12:00,
2013-03-04 05:17:00,47.1,35.2,29.99,SE,145,3.1,3.6,63,0.00,,,0.00,VWS V14.01,2013-03-04 13:17:00,
2013-03-04 05:22:00,47.1,35.2,29.99,SSW,193,3.1,3.1,63,0.00,,,0.00,VWS V14.01,2013-03-04 13:22:00,
2013-03-04 05:27:00,47.1,35.2,29.99,SSW,212,3.6,3.6,63,0.00,,,0.00,VWS V14.01,2013-03-04 13:27:00,
2013-03-04 05:32:00,47.1,35.2,29.99,WSW,239,2.7,3.6,63,0.00,,,0.00,VWS V14.01,2013-03-04 13:32:00,
2013-03-04 05:37:00,46.9,35.4,29.99,SSW,206,2.7,5.4,64,0.00,,,0.00,VWS V14.01,2013-03-04 13:37:00,
2013-03-04 05:42:00,46.9,35.4,29.99,SSW,207,3.6,6.3,64,0.00,,,0.00,VWS V14.01,2013-03-04 13:42:00,
2013-03-04 05:47:00,46.8,35.2,29.99,SW,215,6.3,7.6,64,0.00,,,0.00,VWS V14.01,2013-03-04 13:47:00,
2013-03-04 05:52:00,46.8,35.6,29.99,SSW,203,3.1,5.4,65,0.00,,,0.00,VWS V14.01,2013-03-04 13:52:00,
2013-03-04 05:57:00,46.6,35.8,29.99,SSW,204,3.6,5.8,66,0.00,,,0.00,VWS V14.01,2013-03-04 13:57:00,
2013-03-04 06:02:00,46.6,35.8,29.99,South,187,4.5,4.5,66,0.00,,,0.00,VWS V14.01,2013-03-04 14:02:00,
2013-03-04 06:07:00,46.6,36.2,29.99,SSW,213,3.6,3.6,67,0.00,,,0.00,VWS V14.01,2013-03-04 14:07:00,
2013-03-04 06:12:00,46.6,36.2,29.99,SW,228,8.7,8.7,67,0.00,,,0.00,VWS V14.01,2013-03-04 14:12:00,
2013-03-04 06:17:00,46.6,36.6,29.99,SW,219,5.8,5.8,68,0.00,,,0.00,VWS V14.01,2013-03-04 14:17:00,
2013-03-04 06:22:00,46.6,36.6,29.99,WSW,245,5.4,5.4,68,0.00,,,0.00,VWS V14.01,2013-03-04 14:22:00,
2013-03-04 06:27:00,46.6,37.0,30.02,SW,234,3.1,3.6,69,0.00,,,0.00,VWS V14.01,2013-03-04 14:27:00,
2013-03-04 06:32:00,46.6,37.0,30.02,WSW,248,5.4,5.4,69,0.00,,,0.00,VWS V14.01,2013-03-04 14:32:00,
2013-03-04 06:37:00,46.4,36.8,30.02,SSW,213,5.8,5.8,69,0.00,,,0.00,VWS V14.01,2013-03-04 14:37:00,
2013-03-04 06:42:00,46.4,37.2,30.02,SSW,208,5.4,5.4,70,0.00,,,0.00,VWS V14.01,2013-03-04 14:42:00,
2013-03-04 06:47:00,46.4,37.2,30.02,SSW,213,3.6,3.6,70,0.00,,,0.00,VWS V14.01,2013-03-04 14:47:00,
2013-03-04 06:52:00,46.6,37.3,30.02,SW,216,2.2,2.2,70,0.00,,,0.00,VWS V14.01,2013-03-04 14:52:00,
2013-03-04 06:57:00,46.6,37.3,30.02,SSW,206,0.0,0.0,70,0.00,,,0.00,VWS V14.01,2013-03-04 14:57:00,
2013-03-04 07:02:00,46.6,37.7,30.02,SSW,209,0.0,0.0,71,0.00,,,0.00,VWS V14.01,2013-03-04 15:02:00,
2013-03-04 07:07:00,46.8,37.9,30.02,SSW,208,0.0,3.1,71,0.00,,,0.00,VWS V14.01,2013-03-04 15:07:00,
2013-03-04 07:12:00,46.8,37.9,30.02,SSE,160,3.1,3.1,71,0.00,,,0.00,VWS V14.01,2013-03-04 15:12:00,
2013-03-04 07:17:00,46.8,37.9,30.02,SSW,201,2.7,2.7,71,0.00,,,0.00,VWS V14.01,2013-03-04 15:17:00,
2013-03-04 07:22:00,46.9,38.0,30.02,SSW,202,3.1,3.1,71,0.00,,,0.00,VWS V14.01,2013-03-04 15:22:00,
2013-03-04 07:27:00,46.9,38.0,30.02,SSW,210,3.6,4.9,71,0.00,,,0.00,VWS V14.01,2013-03-04 15:27:00,
2013-03-04 07:32:00,46.8,37.9,30.02,SW,230,3.1,3.6,71,0.00,,,0.00,VWS V14.01,2013-03-04 15:32:00,
2013-03-04 07:37:00,46.8,38.2,30.02,SSW,209,2.7,3.6,72,0.00,,,0.00,VWS V14.01,2013-03-04 15:37:00,
2013-03-04 07:42:00,46.8,38.2,30.02,WSW,258,4.9,4.9,72,0.00,,,0.00,VWS V14.01,2013-03-04 15:42:00,
2013-03-04 07:47:00,46.9,38.4,30.02,SSW,197,0.0,2.2,72,0.00,,,0.00,VWS V14.01,2013-03-04 15:47:00,
2013-03-04 07:52:00,46.9,38.4,30.02,SSW,212,3.6,4.0,72,0.00,,,0.00,VWS V14.01,2013-03-04 15:52:00,
2013-03-04 07:57:00,47.1,38.6,30.02,SSW,210,3.6,3.6,72,0.00,,,0.00,VWS V14.01,2013-03-04 15:57:00,
2013-03-04 08:02:00,47.1,38.6,30.02,South,175,2.7,5.8,72,0.00,,,0.00,VWS V14.01,2013-03-04 16:02:00,
2013-03-04 08:07:00,47.1,38.6,30.02,SSW,206,4.0,4.0,72,0.00,,,0.00,VWS V14.01,2013-03-04 16:07:00,
2013-03-04 08:12:00,47.1,38.9,30.05,SSW,212,3.6,5.8,73,0.00,,,0.00,VWS V14.01,2013-03-04 16:12:00,
2013-03-04 08:17:00,47.1,38.9,30.05,SW,225,2.2,2.7,73,0.00,,,0.00,VWS V14.01,2013-03-04 16:17:00,
2013-03-04 08:22:00,47.3,39.1,30.05,SSW,192,6.3,6.3,73,0.00,,,0.00,VWS V14.01,2013-03-04 16:22:00,
2013-03-04 08:27:00,47.3,39.1,30.05,SSW,192,3.1,4.0,73,0.00,,,0.00,VWS V14.01,2013-03-04 16:27:00,
2013-03-04 08:32:00,47.3,39.1,30.05,SW,218,5.4,5.4,73,0.00,,,0.00,VWS V14.01,2013-03-04 16:32:00,
2013-03-04 08:37:00,47.3,39.1,30.05,SSW,204,3.1,7.6,73,0.00,,,0.00,VWS V14.01,2013-03-04 16:37:00,
2013-03-04 08:42:00,47.3,39.1,30.05,SW,235,3.1,3.6,73,0.00,,,0.00,VWS V14.01,2013-03-04 16:42:00,
2013-03-04 08:47:00,47.3,39.1,30.05,SW,236,5.8,5.8,73,0.00,,,0.00,VWS V14.01,2013-03-04 16:47:00,
2013-03-04 08:52:00,47.3,39.1,30.05,SSW,213,2.7,5.8,73,0.00,,,0.00,VWS V14.01,2013-03-04 16:52:00,
2013-03-04 08:58:00,47.5,39.3,30.05,SW,219,3.1,4.0,73,0.00,,,0.00,VWS V14.01,2013-03-04 16:58:00,
2013-03-04 09:03:00,47.7,39.8,30.05,SW,214,3.6,3.6,74,0.00,,,0.00,VWS V14.01,2013-03-04 17:03:00,
2013-03-04 09:08:00,47.5,39.3,30.05,SSW,199,3.1,4.9,73,0.00,,,0.00,VWS V14.01,2013-03-04 17:08:00,
2013-03-04 09:13:00,47.5,39.3,30.05,SSW,202,3.1,3.1,73,0.00,,,0.00,VWS V14.01,2013-03-04 17:13:00,
2013-03-04 09:18:00,47.7,39.4,30.05,SSW,199,2.2,4.9,73,0.00,,,0.00,VWS V14.01,2013-03-04 17:18:00,
2013-03-04 09:23:00,47.7,39.4,30.05,SW,220,0.0,0.0,73,0.00,,,0.00,VWS V14.01,2013-03-04 17:23:00,
2013-03-04 09:28:00,47.7,39.8,30.05,South,180,4.0,4.0,74,0.00,,,0.00,VWS V14.01,2013-03-04 17:28:00,
2013-03-04 09:33:00,47.8,39.6,30.05,SSW,202,2.7,2.7,73,0.00,,,0.00,VWS V14.01,2013-03-04 17:33:00,
2013-03-04 09:38:00,47.8,40.0,30.05,South,178,4.0,4.0,74,0.00,,,0.00,VWS V14.01,2013-03-04 17:38:00,
2013-03-04 09:43:00,48.0,40.1,30.05,WSW,250,3.6,3.6,74,0.00,,,0.00,VWS V14.01,2013-03-04 17:43:00,
2013-03-04 09:48:00,48.2,40.0,30.05,SSW,206,3.1,3.1,73,0.00,,,0.00,VWS V14.01,2013-03-04 17:48:00,
2013-03-04 09:53:00,48.2,40.0,30.05,SW,231,5.4,5.4,73,0.00,,,0.00,VWS V14.01,2013-03-04 17:53:00,
2013-03-04 09:58:00,48.2,40.0,30.05,SW,218,5.8,5.8,73,0.00,,,0.00,VWS V14.01,2013-03-04 17:58:00,
2013-03-04 10:03:00,48.2,40.0,30.05,SSW,197,3.6,3.6,73,0.00,,,0.00,VWS V14.01,2013-03-04 18:03:00,
2013-03-04 10:08:00,48.4,40.1,30.05,SSW,211,3.1,3.1,73,0.00,,,0.00,VWS V14.01,2013-03-04 18:08:00,
2013-03-04 10:13:00,48.6,40.0,30.05,SW,219,2.7,2.7,72,0.00,,,0.00,VWS V14.01,2013-03-04 18:13:00,
2013-03-04 10:18:00,48.7,40.1,30.05,SSW,200,2.7,2.7,72,0.00,,,0.00,VWS V14.01,2013-03-04 18:18:00,
2013-03-04 10:23:00,49.1,40.5,30.05,SE,134,2.7,2.7,72,0.00,,,0.00,VWS V14.01,2013-03-04 18:23:00,
2013-03-04 10:28:00,49.3,40.3,30.02,SSE,159,0.0,5.8,71,0.00,,,0.00,VWS V14.01,2013-03-04 18:28:00,
2013-03-04 10:29:00,49.3,40.3,30.02,SW,224,4.0,4.0,71,0.00,,,0.00,VWS V14.01,2013-03-04 18:29:00,
2013-03-04 10:30:00,49.3,40.3,30.02,SW,214,2.2,2.7,71,0.00,,,0.00,VWS V14.01,2013-03-04 18:30:00,
2013-03-04 10:35:00,49.3,39.5,30.02,SW,214,3.6,4.9,69,0.00,,,0.00,VWS V14.01,2013-03-04 18:35:00,
2013-03-04 10:40:00,49.5,39.3,30.02,SW,215,3.6,3.6,68,0.00,,,0.00,VWS V14.01,2013-03-04 18:40:00,
2013-03-04 10:45:00,49.8,39.3,30.02,SW,236,3.6,3.6,67,0.00,,,0.00,VWS V14.01,2013-03-04 18:45:00,
2013-03-04 10:50:00,50.0,38.7,30.02,SSE,157,2.2,3.6,65,0.00,,,0.00,VWS V14.01,2013-03-04 18:50:00,
2013-03-04 10:55:00,50.0,37.5,30.02,SW,229,0.0,2.7,62,0.00,,,0.00,VWS V14.01,2013-03-04 18:55:00,
2013-03-04 11:00:00,49.6,36.3,30.02,SW,229,3.6,3.6,60,0.00,,,0.00,VWS V14.01,2013-03-04 19:00:00,
2013-03-04 11:05:00,49.5,34.0,30.02,SSE,159,3.6,4.0,55,0.00,,,0.00,VWS V14.01,2013-03-04 19:05:00,
2013-03-04 11:10:00,49.5,32.1,30.02,SSW,201,4.5,6.3,51,0.00,,,0.00,VWS V14.01,2013-03-04 19:10:00,
2013-03-04 11:15:00,49.1,29.8,30.02,SSW,193,2.7,5.4,47,0.00,,,0.00,VWS V14.01,2013-03-04 19:15:00,
2013-03-04 11:20:00,49.3,28.9,30.02,SE,141,3.1,3.1,45,0.00,,,0.00,VWS V14.01,2013-03-04 19:20:00,
2013-03-04 11:25:00,49.5,27.9,30.02,SSW,207,2.7,2.7,43,0.00,,,0.00,VWS V14.01,2013-03-04 19:25:00,
2013-03-04 11:30:00,49.6,27.5,30.02,SW,214,2.7,2.7,42,0.00,,,0.00,VWS V14.01,2013-03-04 19:30:00,
2013-03-04 11:35:00,50.0,27.2,30.02,SE,141,3.1,4.0,41,0.00,,,0.00,VWS V14.01,2013-03-04 19:35:00,
2013-03-04 11:41:00,50.2,26.2,30.02,SSE,151,4.0,4.0,39,0.00,,,0.00,VWS V14.01,2013-03-04 19:41:00,
2013-03-04 11:46:00,50.0,25.4,30.02,WSW,237,5.8,5.8,38,0.00,,,0.00,VWS V14.01,2013-03-04 19:46:00,
2013-03-04 11:51:00,49.8,24.6,30.02,SW,214,4.9,7.2,37,0.00,,,0.00,VWS V14.01,2013-03-04 19:51:00,
2013-03-04 11:56:00,49.8,24.6,30.02,SSW,205,3.1,6.7,37,0.00,,,0.00,VWS V14.01,2013-03-04 19:56:00,
2013-03-04 12:01:00,50.0,24.8,30.02,SE,145,3.6,4.0,37,0.00,,,0.00,VWS V14.01,2013-03-04 20:01:00,
2013-03-04 12:06:00,50.2,24.9,30.02,SSW,212,5.8,6.3,37,0.00,,,0.00,VWS V14.01,2013-03-04 20:06:00,
2013-03-04 12:11:00,50.2,24.3,30.02,SW,215,3.6,3.6,36,0.00,,,0.00,VWS V14.01,2013-03-04 20:11:00,
2013-03-04 12:16:00,50.2,24.3,30.02,WSW,239,5.8,5.8,36,0.00,,,0.00,VWS V14.01,2013-03-04 20:16:00,
2013-03-04 12:21:00,50.2,24.3,30.02,SW,214,3.1,4.9,36,0.00,,,0.00,VWS V14.01,2013-03-04 20:21:00,
2013-03-04 12:26:00,50.2,24.3,30.02,SW,230,4.9,6.3,36,0.00,,,0.00,VWS V14.01,2013-03-04 20:26:00,
2013-03-04 12:31:00,50.0,24.1,30.02,SSW,204,2.7,5.4,36,0.00,,,0.00,VWS V14.01,2013-03-04 20:31:00,
2013-03-04 12:36:00,50.2,24.3,30.02,SW,218,3.6,5.8,36,0.00,,,0.00,VWS V14.01,2013-03-04 20:36:00,
2013-03-04 12:41:00,50.2,24.3,30.02,SSW,212,4.9,4.9,36,0.00,,,0.00,VWS V14.01,2013-03-04 20:41:00,
2013-03-04 12:46:00,50.5,24.6,30.02,SW,219,4.9,4.9,36,0.00,,,0.00,VWS V14.01,2013-03-04 20:46:00,
2013-03-04 12:51:00,50.9,24.2,30.02,SW,220,2.2,4.0,35,0.00,,,0.00,VWS V14.01,2013-03-04 20:51:00,
2013-03-04 12:56:00,50.9,22.8,30.02,SW,220,2.7,4.0,33,0.00,,,0.00,VWS V14.01,2013-03-04 20:56:00,
2013-03-04 13:01:00,50.9,22.1,30.02,SW,214,6.3,6.3,32,0.00,,,0.00,VWS V14.01,2013-03-04 21:01:00,
2013-03-04 13:06:00,50.7,21.2,30.02,WSW,244,4.0,7.6,31,0.00,,,0.00,VWS V14.01,2013-03-04 21:06:00,
2013-03-04 13:11:00,50.5,21.0,29.99,SW,223,4.9,4.9,31,0.00,,,0.00,VWS V14.01,2013-03-04 21:11:00,
2013-03-04 13:16:00,50.5,21.8,29.99,SSW,211,3.6,3.6,32,0.00,,,0.00,VWS V14.01,2013-03-04 21:16:00,
2013-03-04 13:21:00,50.7,22.0,29.99,SW,225,3.6,3.6,32,0.00,,,0.00,VWS V14.01,2013-03-04 21:21:00,
2013-03-04 13:26:00,50.9,22.8,29.99,WSW,238,4.9,4.9,33,0.00,,,0.00,VWS V14.01,2013-03-04 21:26:00,
2013-03-04 13:31:00,51.6,23.5,29.99,South,191,3.1,3.6,33,0.00,,,0.00,VWS V14.01,2013-03-04 21:31:00,
2013-03-04 13:36:00,52.5,23.5,29.99,South,189,4.0,4.0,32,0.00,,,0.00,VWS V14.01,2013-03-04 21:36:00,
2013-03-04 13:41:00,52.9,21.5,29.99,South,179,3.1,3.6,29,0.00,,,0.00,VWS V14.01,2013-03-04 21:41:00,
2013-03-04 13:46:00,53.2,21.8,29.99,South,178,4.0,4.0,29,0.00,,,0.00,VWS V14.01,2013-03-04 21:46:00,
2013-03-04 13:51:00,54.1,20.9,29.99,WSW,241,3.1,4.0,27,0.00,,,0.00,VWS V14.01,2013-03-04 21:51:00,
2013-03-04 13:56:00,54.3,20.2,29.96,SSW,194,3.6,3.6,26,0.00,,,0.00,VWS V14.01,2013-03-04 21:56:00,
2013-03-04 14:01:00,54.5,20.3,29.96,SW,214,3.6,3.6,26,0.00,,,0.00,VWS V14.01,2013-03-04 22:01:00,
2013-03-04 14:06:00,54.7,20.5,29.96,SSW,204,5.4,7.2,26,0.00,,,0.00,VWS V14.01,2013-03-04 22:06:00,
2013-03-04 14:11:00,54.7,19.6,29.96,SSW,201,6.3,7.2,25,0.00,,,0.00,VWS V14.01,2013-03-04 22:11:00,
2013-03-04 14:16:00,54.7,19.6,29.96,SW,234,4.0,6.3,25,0.00,,,0.00,VWS V14.01,2013-03-04 22:16:00,
2013-03-04 14:21:00,55.2,20.0,29.96,SW,234,4.9,4.9,25,0.00,,,0.00,VWS V14.01,2013-03-04 22:21:00,
2013-03-04 14:26:00,55.8,17.5,29.96,SW,216,5.8,6.7,22,0.00,,,0.00,VWS V14.01,2013-03-04 22:26:00,
2013-03-04 14:31:00,55.8,15.3,29.96,SW,225,4.9,5.4,20,0.00,,,0.00,VWS V14.01,2013-03-04 22:31:00,
2013-03-04 14:36:00,55.9,15.5,29.96,SSW,202,4.9,6.3,20,0.00,,,0.00,VWS V14.01,2013-03-04 22:36:00,
2013-03-04 14:41:00,56.1,15.6,29.96,South,179,6.3,7.6,20,0.00,,,0.00,VWS V14.01,2013-03-04 22:41:00,
2013-03-04 14:46:00,55.9,11.8,29.96,SW,229,4.9,6.3,17,0.00,,,0.00,VWS V14.01,2013-03-04 22:46:00,
2013-03-04 14:51:00,56.3,12.1,29.96,SW,224,5.4,5.8,17,0.00,,,0.00,VWS V14.01,2013-03-04 22:51:00,
2013-03-04 14:56:00,56.1,11.9,29.99,SW,226,5.8,7.2,17,0.00,,,0.00,VWS V14.01,2013-03-04 22:56:00,
2013-03-04 15:01:00,55.2,12.5,29.99,West,260,5.4,8.1,18,0.00,,,0.00,VWS V14.01,2013-03-04 23:01:00,
2013-03-04 15:06:00,54.7,14.4,29.99,SW,224,7.6,7.6,20,0.00,,,0.00,VWS V14.01,2013-03-04 23:06:00,
2013-03-04 15:11:00,54.1,17.2,29.99,SSW,204,5.4,5.8,23,0.00,,,0.00,VWS V14.01,2013-03-04 23:11:00,
2013-03-04 15:16:00,53.6,16.7,29.99,SW,226,6.3,8.3,23,0.00,,,0.00,VWS V14.01,2013-03-04 23:16:00,
2013-03-04 15:21:00,53.1,19.1,29.99,SSW,192,7.6,7.6,26,0.00,,,0.00,VWS V14.01,2013-03-04 23:21:00,
2013-03-04 15:26:00,53.2,19.3,29.99,SW,233,5.4,5.4,26,0.00,,,0.00,VWS V14.01,2013-03-04 23:26:00,
2013-03-04 15:31:00,53.6,18.6,29.99,SSW,200,3.6,4.9,25,0.00,,,0.00,VWS V14.01,2013-03-04 23:31:00,
2013-03-04 15:36:00,53.6,16.7,29.99,SSW,194,5.4,5.4,23,0.00,,,0.00,VWS V14.01,2013-03-04 23:36:00,
2013-03-04 15:41:00,53.6,16.7,29.99,WSW,237,7.6,8.1,23,0.00,,,0.00,VWS V14.01,2013-03-04 23:41:00,
2013-03-04 15:46:00,53.2,16.4,29.99,West,267,3.6,4.0,23,0.00,,,0.00,VWS V14.01,2013-03-04 23:46:00,
2013-03-04 15:51:00,53.4,16.6,29.99,SSW,205,5.8,6.3,23,0.00,,,0.00,VWS V14.01,2013-03-04 23:51:00,
2013-03-04 15:56:00,53.2,14.3,29.96,SSW,203,6.3,6.3,21,0.00,,,0.00,VWS V14.01,2013-03-04 23:56:00,
2013-03-04 16:01:00,53.1,14.2,29.96,SW,235,3.1,8.3,21,0.00,,,0.00,VWS V14.01,2013-03-05 00:01:00,
2013-03-04 16:06:00,53.1,16.3,29.96,SW,230,4.9,4.9,23,0.00,,,0.00,VWS V14.01,2013-03-05 00:06:00,
2013-03-04 16:11:00,53.1,16.3,29.96,WSW,240,5.4,5.8,23,0.00,,,0.00,VWS V14.01,2013-03-05 00:11:00,
2013-03-04 16:16:00,53.1,16.3,29.96,South,190,2.2,3.1,23,0.00,,,0.00,VWS V14.01,2013-03-05 00:16:00,
2013-03-04 16:21:00,53.2,16.4,29.96,SSE,158,3.1,3.1,23,0.00,,,0.00,VWS V14.01,2013-03-05 00:21:00,
2013-03-04 16:26:00,53.4,16.6,29.96,South,188,3.6,3.6,23,0.00,,,0.00,VWS V14.01,2013-03-05 00:26:00,
2013-03-04 16:31:00,53.6,13.5,29.96,SW,214,3.1,3.6,20,0.00,,,0.00,VWS V14.01,2013-03-05 00:31:00,
2013-03-04 16:36:00,53.1,14.2,29.96,SW,223,3.6,3.6,21,0.00,,,0.00,VWS V14.01,2013-03-05 00:36:00,
2013-03-04 16:41:00,53.1,14.2,29.96,SE,124,3.1,3.1,21,0.00,,,0.00,VWS V14.01,2013-03-05 00:41:00,
2013-03-04 16:46:00,53.1,16.3,29.96,SSW,205,3.1,3.6,23,0.00,,,0.00,VWS V14.01,2013-03-05 00:46:00,
2013-03-04 16:52:00,53.2,16.4,29.96,South,171,2.7,3.1,23,0.00,,,0.00,VWS V14.01,2013-03-05 00:52:00,
2013-03-04 16:57:00,53.1,16.3,29.96,South,171,0.0,3.6,23,0.00,,,0.00,VWS V14.01,2013-03-05 00:57:00,
2013-03-04 17:02:00,53.2,16.4,29.96,SW,229,3.1,3.1,23,0.00,,,0.00,VWS V14.01,2013-03-05 01:02:00,
2013-03-04 17:07:00,53.1,16.3,29.96,South,191,2.7,5.4,23,0.00,,,0.00,VWS V14.01,2013-03-05 01:07:00,
2013-03-04 17:12:00,52.5,15.8,29.96,SSW,212,2.2,4.0,23,0.00,,,0.00,VWS V14.01,2013-03-05 01:12:00,
2013-03-04 17:17:00,52.2,15.5,29.96,SSW,211,3.6,3.6,23,0.00,,,0.00,VWS V14.01,2013-03-05 01:17:00,
2013-03-04 17:22:00,51.8,18.0,29.96,SSE,149,2.2,4.0,26,0.00,,,0.00,VWS V14.01,2013-03-05 01:22:00,
2013-03-04 17:27:00,51.6,17.9,29.96,South,172,2.7,3.6,26,0.00,,,0.00,VWS V14.01,2013-03-05 01:27:00,
2013-03-04 17:32:00,51.3,17.6,29.96,SW,234,3.6,3.6,26,0.00,,,0.00,VWS V14.01,2013-03-05 01:32:00,
2013-03-04 17:37:00,50.9,17.2,29.96,South,179,2.7,3.6,26,0.00,,,0.00,VWS V14.01,2013-03-05 01:37:00,
2013-03-04 17:42:00,50.5,17.0,29.96,SSW,200,0.0,4.0,26,0.00,,,0.00,VWS V14.01,2013-03-05 01:42:00,
2013-03-04 17:47:00,50.2,17.5,29.96,South,187,3.1,3.6,27,0.00,,,0.00,VWS V14.01,2013-03-05 01:47:00,
2013-03-04 17:52:00,49.6,17.9,29.96,South,182,2.7,2.7,28,0.00,,,0.00,VWS V14.01,2013-03-05 01:52:00,
2013-03-04 17:57:00,49.3,17.6,29.96,SE,128,3.1,5.4,28,0.00,,,0.00,VWS V14.01,2013-03-05 01:57:00,
2013-03-04 18:02:00,48.9,18.1,29.96,SSE,160,2.2,2.7,29,0.00,,,0.00,VWS V14.01,2013-03-05 02:02:00,
2013-03-04 18:07:00,48.6,18.5,29.96,ESE,118,0.0,0.0,30,0.00,,,0.00,VWS V14.01,2013-03-05 02:07:00,
2013-03-04 18:12:00,48.0,19.6,29.96,South,173,2.7,3.6,32,0.00,,,0.00,VWS V14.01,2013-03-05 02:12:00,
2013-03-04 18:17:00,47.7,20.0,29.96,SE,142,2.7,2.7,33,0.00,,,0.00,VWS V14.01,2013-03-05 02:17:00,
2013-03-04 18:22:00,47.3,21.7,29.96,SSE,162,2.2,3.1,36,0.00,,,0.00,VWS V14.01,2013-03-05 02:22:00,
2013-03-04 18:27:00,47.1,22.2,29.96,SE,142,0.0,0.0,37,0.00,,,0.00,VWS V14.01,2013-03-05 02:27:00,
2013-03-04 18:32:00,46.9,22.0,29.96,South,170,4.9,4.9,37,0.00,,,0.00,VWS V14.01,2013-03-05 02:32:00,
2013-03-04 18:37:00,46.8,21.9,29.96,SSE,165,2.7,2.7,37,0.00,,,0.00,VWS V14.01,2013-03-05 02:37:00,
2013-03-04 18:42:00,46.8,21.9,29.96,SE,143,0.0,0.0,37,0.00,,,0.00,VWS V14.01,2013-03-05 02:42:00,
2013-03-04 18:47:00,46.6,22.4,29.96,SSW,203,3.1,3.1,38,0.00,,,0.00,VWS V14.01,2013-03-05 02:47:00,
2013-03-04 18:52:00,46.4,22.2,29.96,SW,227,3.1,3.1,38,0.00,,,0.00,VWS V14.01,2013-03-05 02:52:00,
2013-03-04 18:57:00,46.4,22.2,29.96,SSW,211,5.4,5.4,38,0.00,,,0.00,VWS V14.01,2013-03-05 02:57:00,
2013-03-04 19:02:00,46.4,22.8,29.96,SSE,149,0.0,2.2,39,0.00,,,0.00,VWS V14.01,2013-03-05 03:02:00,
2013-03-04 19:07:00,46.2,22.6,29.96,SSE,151,3.1,3.1,39,0.00,,,0.00,VWS V14.01,2013-03-05 03:07:00,
2013-03-04 19:12:00,46.2,23.2,29.96,SW,221,3.1,3.1,40,0.00,,,0.00,VWS V14.01,2013-03-05 03:12:00,
2013-03-04 19:17:00,46.0,23.1,29.96,SSE,167,0.0,3.1,40,0.00,,,0.00,VWS V14.01,2013-03-05 03:17:00,
2013-03-04 19:22:00,46.0,23.7,29.96,SW,228,3.1,3.6,41,0.00,,,0.00,VWS V14.01,2013-03-05 03:22:00,
2013-03-04 19:27:00,46.0,23.7,29.96,SSW,205,2.7,3.6,41,0.00,,,0.00,VWS V14.01,2013-03-05 03:27:00,
2013-03-04 19:32:00,45.9,23.5,29.96,South,184,0.0,2.7,41,0.00,,,0.00,VWS V14.01,2013-03-05 03:32:00,
2013-03-04 19:37:00,45.9,24.1,29.96,South,184,0.0,0.0,42,0.00,,,0.00,VWS V14.01,2013-03-05 03:37:00,
2013-03-04 19:42:00,45.7,23.9,29.96,SSE,165,0.0,0.0,42,0.00,,,0.00,VWS V14.01,2013-03-05 03:42:00,
2013-03-04 19:47:00,45.7,23.9,29.96,South,170,2.2,2.2,42,0.00,,,0.00,VWS V14.01,2013-03-05 03:47:00,
2013-03-04 19:52:00,45.5,23.8,29.96,SSE,164,0.0,0.0,42,0.00,,,0.00,VWS V14.01,2013-03-05 03:52:00,
2013-03-04 19:57:00,45.5,23.8,29.96,SSE,157,0.0,0.0,42,0.00,,,0.00,VWS V14.01,2013-03-05 03:57:00,
2013-03-04 20:02:00,45.3,23.6,29.96,SE,135,0.0,0.0,42,0.00,,,0.00,VWS V14.01,2013-03-05 04:02:00,
2013-03-04 20:07:00,45.3,24.2,29.96,ESE,123,0.0,0.0,43,0.00,,,0.00,VWS V14.01,2013-03-05 04:07:00,
2013-03-04 20:12:00,45.3,24.2,29.99,ESE,123,0.0,0.0,43,0.00,,,0.00,VWS V14.01,2013-03-05 04:12:00,
2013-03-04 20:17:00,45.1,24.0,29.99,ESE,123,0.0,0.0,43,0.00,,,0.00,VWS V14.01,2013-03-05 04:17:00,
2013-03-04 20:22:00,45.1,24.0,29.99,ESE,123,0.0,0.0,43,0.00,,,0.00,VWS V14.01,2013-03-05 04:22:00,
2013-03-04 20:27:00,45.1,24.0,29.99,ESE,121,0.0,2.7,43,0.00,,,0.00,VWS V14.01,2013-03-05 04:27:00,
2013-03-04 20:32:00,45.1,24.5,29.99,South,173,0.0,0.0,44,0.00,,,0.00,VWS V14.01,2013-03-05 04:32:00,
2013-03-04 20:37:00,45.1,24.5,29.99,South,169,0.0,2.2,44,0.00,,,0.00,VWS V14.01,2013-03-05 04:37:00,
2013-03-04 20:42:00,45.1,24.5,29.99,SSE,164,0.0,2.2,44,0.00,,,0.00,VWS V14.01,2013-03-05 04:42:00,
2013-03-04 20:47:00,45.1,25.1,29.99,South,191,3.1,3.6,45,0.00,,,0.00,VWS V14.01,2013-03-05 04:47:00,
2013-03-04 20:52:00,45.1,25.1,29.99,SSW,201,0.0,0.0,45,0.00,,,0.00,VWS V14.01,2013-03-05 04:52:00,
2013-03-04 20:57:00,45.1,25.6,29.99,SSE,163,0.0,2.7,46,0.00,,,0.00,VWS V14.01,2013-03-05 04:57:00,
2013-03-04 21:00:00,45.1,25.6,29.99,SSE,161,2.2,2.7,46,0.00,,,0.00,VWS V14.01,2013-03-05 05:00:00,
2013-03-04 21:01:00,45.1,25.6,29.99,SSE,161,0.0,0.0,46,0.00,,,0.00,VWS V14.01,2013-03-05 05:01:00,
2013-03-04 21:06:00,45.0,25.4,29.99,SSE,161,0.0,0.0,46,0.00,,,0.00,VWS V14.01,2013-03-05 05:06:00,
2013-03-04 21:11:00,44.8,25.3,29.99,SE,132,2.2,2.7,46,0.00,,,0.00,VWS V14.01,2013-03-05 05:11:00,
2013-03-04 21:16:00,44.8,25.3,29.99,SSE,159,0.0,0.0,46,0.00,,,0.00,VWS V14.01,2013-03-05 05:16:00,
2013-03-04 21:21:00,44.6,25.6,29.99,SSE,164,0.0,0.0,47,0.00,,,0.00,VWS V14.01,2013-03-05 05:21:00,
2013-03-04 21:26:00,44.6,25.6,29.99,SSE,163,0.0,2.2,47,0.00,,,0.00,VWS V14.01,2013-03-05 05:26:00,
2013-03-04 21:31:00,44.4,25.5,29.99,SSW,209,0.0,3.6,47,0.00,,,0.00,VWS V14.01,2013-03-05 05:31:00,
2013-03-04 21:36:00,44.6,25.6,29.99,South,170,2.7,2.7,47,0.00,,,0.00,VWS V14.01,2013-03-05 05:36:00,
2013-03-04 21:41:00,44.6,25.6,29.99,SSW,201,2.2,2.7,47,0.00,,,0.00,VWS V14.01,2013-03-05 05:41:00,
2013-03-04 21:46:00,44.6,25.6,29.99,SSW,209,2.7,2.7,47,0.00,,,0.00,VWS V14.01,2013-03-05 05:46:00,
2013-03-04 21:51:00,44.4,26.0,29.99,SSW,198,2.2,3.1,48,0.00,,,0.00,VWS V14.01,2013-03-05 05:51:00,
2013-03-04 21:56:00,44.4,26.0,29.99,South,187,2.7,2.7,48,0.00,,,0.00,VWS V14.01,2013-03-05 05:56:00,
2013-03-04 22:01:00,44.2,25.8,29.99,SE,136,2.2,2.2,48,0.00,,,0.00,VWS V14.01,2013-03-05 06:01:00,
2013-03-04 22:06:00,44.2,25.8,29.99,SSE,155,3.6,3.6,48,0.00,,,0.00,VWS V14.01,2013-03-05 06:06:00,
2013-03-04 22:11:00,44.4,26.5,29.99,SE,127,3.1,3.1,49,0.00,,,0.00,VWS V14.01,2013-03-05 06:11:00,
2013-03-04 22:16:00,44.4,26.5,29.99,SE,134,4.0,5.4,49,0.00,,,0.00,VWS V14.01,2013-03-05 06:16:00,
2013-03-04 22:21:00,44.4,26.5,29.99,SW,217,2.7,5.4,49,0.00,,,0.00,VWS V14.01,2013-03-05 06:21:00,
2013-03-04 22:26:00,44.2,26.3,29.99,South,178,2.2,2.7,49,0.00,,,0.00,VWS V14.01,2013-03-05 06:26:00,
2013-03-04 22:31:00,44.2,26.3,29.99,SE,124,0.0,0.0,49,0.00,,,0.00,VWS V14.01,2013-03-05 06:31:00,
2013-03-04 22:36:00,44.2,26.3,29.99,South,169,0.0,2.2,49,0.00,,,0.00,VWS V14.01,2013-03-05 06:36:00,
2013-03-04 22:41:00,44.1,26.1,29.99,SSW,206,2.2,2.7,49,0.00,,,0.00,VWS V14.01,2013-03-05 06:41:00,
2013-03-04 22:46:00,43.9,26.0,29.99,South,180,2.2,2.7,49,0.00,,,0.00,VWS V14.01,2013-03-05 06:46:00,
2013-03-04 22:51:00,43.9,26.0,29.99,SSE,152,2.7,2.7,49,0.00,,,0.00,VWS V14.01,2013-03-05 06:51:00,
2013-03-04 22:56:00,43.7,25.8,29.99,SSE,148,0.0,2.7,49,0.00,,,0.00,VWS V14.01,2013-03-05 06:56:00,
2013-03-04 23:01:00,43.7,25.8,29.99,South,188,0.0,0.0,49,0.00,,,0.00,VWS V14.01,2013-03-05 07:01:00,
2013-03-04 23:06:00,43.7,25.8,29.99,SSE,165,0.0,0.0,49,0.00,,,0.00,VWS V14.01,2013-03-05 07:06:00,
2013-03-04 23:11:00,43.7,26.3,29.99,ESE,122,0.0,0.0,50,0.00,,,0.00,VWS V14.01,2013-03-05 07:11:00,
2013-03-04 23:16:00,43.7,26.3,29.99,SSW,192,0.0,0.0,50,0.00,,,0.00,VWS V14.01,2013-03-05 07:16:00,
2013-03-04 23:21:00,43.5,26.1,29.99,ESE,113,0.0,0.0,50,0.00,,,0.00,VWS V14.01,2013-03-05 07:21:00,
2013-03-04 23:26:00,43.5,26.1,29.96,South,173,2.2,3.6,50,0.00,,,0.00,VWS V14.01,2013-03-05 07:26:00,
2013-03-04 23:31:00,43.3,26.0,29.96,South,189,0.0,0.0,50,0.00,,,0.00,VWS V14.01,2013-03-05 07:31:00,
2013-03-04 23:36:00,43.3,26.0,29.96,South,169,0.0,2.7,50,0.00,,,0.00,VWS V14.01,2013-03-05 07:36:00,
2013-03-04 23:41:00,43.3,26.0,29.96,South,169,0.0,0.0,50,0.00,,,0.00,VWS V14.01,2013-03-05 07:41:00,
2013-03-04 23:46:00,43.2,25.8,29.96,South,169,0.0,0.0,50,0.00,,,0.00,VWS V14.01,2013-03-05 07:46:00,
2013-03-04 23:51:00,43.2,25.8,29.96,South,169,0.0,0.0,50,0.00,,,0.00,VWS V14.01,2013-03-05 07:51:00,
2013-03-04 23:56:00,43.0,25.6,29.96,South,181,0.0,0.0,50,0.00,,,0.00,VWS V14.01,2013-03-05 07:56:00,